Time;durP1;ratioP1;P1;durP2;ratioP2;P2;SDS_P1;SDS_P2;PMS_P1;PMS_P2;Temp;Humidity;BMP_temperature;BMP_pressure;BME280_temperature;BME280_humidity;BME280_pressure;Samples;Min_cycle;Max_cycle;Signal;HPM_P1;HPM_P2
2022/08/22 00:00:26;;;;;;;2.28;0.95;;;;;;;21.02;66.50;100496.44;5010370;28;20053;-68
2022/08/22 00:03:39;;;;;;;4.05;1.30;;;;;;;20.86;66.31;100501.91;5023500;28;20037;-67
2022/08/22 00:06:28;;;;;;;2.50;1.10;;;;;;;20.67;67.26;100502.19;5047236;28;20037;-68
2022/08/22 00:09:20;;;;;;;2.72;1.00;;;;;;;20.76;67.30;100498.94;5073498;28;20082;-68
2022/08/22 00:12:41;;;;;;;2.60;1.13;;;;;;;20.78;67.39;100497.03;5083725;28;20117;-68
2022/08/22 00:15:48;;;;;;;2.28;0.95;;;;;;;20.85;66.75;100505.53;5032606;28;20485;-67
2022/08/22 00:18:21;;;;;;;2.55;0.75;;;;;;;20.83;66.80;100505.63;4968218;28;20421;-68
2022/08/22 00:21:31;;;;;;;3.28;1.38;;;;;;;20.84;67.04;100504.66;5069907;28;20526;-68
2022/08/22 00:24:37;;;;;;;1.15;0.63;;;;;;;20.63;68.00;100506.00;4996742;28;20045;-68
2022/08/22 00:27:24;;;;;;;3.25;1.17;;;;;;;20.74;67.70;100505.31;5066855;28;20120;-68
2022/08/22 00:30:08;;;;;;;1.98;0.75;;;;;;;20.81;67.99;100510.19;5074776;28;20549;-68
2022/08/22 00:33:20;;;;;;;2.47;0.90;;;;;;;20.79;67.98;100504.09;5061624;28;20112;-68
2022/08/22 00:35:59;;;;;;;3.78;1.02;;;;;;;21.11;66.77;100510.09;5050927;28;20033;-68
2022/08/22 00:42:22;;;;;;;1.33;0.82;;;;;;;21.14;66.29;100507.25;4932742;29;20076;-68
2022/08/22 00:45:24;;;;;;;3.20;0.90;;;;;;;21.14;66.48;100511.69;4956564;28;20039;-67
2022/08/22 00:48:22;;;;;;;2.47;1.10;;;;;;;21.12;65.91;100510.94;5069968;28;20123;-67
2022/08/22 00:51:08;;;;;;;5.18;1.42;;;;;;;21.02;66.15;100513.31;5058930;28;20125;-68
2022/08/22 00:53:43;;;;;;;2.67;1.20;;;;;;;20.52;68.22;100516.47;5070361;28;20178;-68
2022/08/22 00:56:26;;;;;;;3.95;1.10;;;;;;;20.89;66.93;100518.59;5055313;28;20040;-67
2022/08/22 00:58:57;;;;;;;1.60;0.93;;;;;;;20.90;66.79;100519.44;5054673;28;20506;-68
2022/08/22 01:02:06;;;;;;;2.05;1.20;;;;;;;20.95;66.74;100521.84;5067638;28;20028;-66
2022/08/22 01:04:49;;;;;;;1.70;0.93;;;;;;;20.21;69.02;100525.44;5047047;28;20044;-68
2022/08/22 01:07:39;;;;;;;2.53;1.25;;;;;;;20.00;69.89;100516.88;5073840;28;20379;-68
2022/08/22 01:10:21;;;;;;;2.55;1.10;;;;;;;19.88;70.46;100522.00;5067586;28;20472;-68
2022/08/22 01:13:27;;;;;;;3.30;1.00;;;;;;;19.92;70.60;100515.53;5064829;28;20469;-65
2022/08/22 01:16:08;;;;;;;3.35;1.40;;;;;;;19.86;71.16;100523.88;5073525;28;20029;-68
2022/08/22 01:18:55;;;;;;;4.05;1.50;;;;;;;19.92;70.88;100522.66;5072397;28;20054;-68
2022/08/22 01:22:05;;;;;;;3.08;1.20;;;;;;;19.96;71.04;100526.03;5063493;28;20116;-67
2022/08/22 01:25:17;;;;;;;2.83;1.10;;;;;;;19.93;71.39;100530.56;5052370;28;20508;-67
2022/08/22 01:28:12;;;;;;;2.70;1.27;;;;;;;19.84;71.97;100528.44;5079025;28;20061;-67
2022/08/22 01:31:26;;;;;;;3.08;1.05;;;;;;;19.89;71.73;100533.50;5086189;28;20036;-68
2022/08/22 01:34:28;;;;;;;2.10;1.13;;;;;;;19.79;71.95;100526.97;5069732;28;20051;-68
2022/08/22 01:37:21;;;;;;;1.70;1.17;;;;;;;19.65;72.56;100533.09;5053234;28;20044;-67
2022/08/22 01:43:50;;;;;;;1.40;1.02;;;;;;;20.20;70.96;100529.06;5066010;28;20043;-66
2022/08/22 01:46:43;;;;;;;2.47;1.52;;;;;;;19.62;72.92;100527.94;5075066;28;20051;-68
2022/08/22 01:52:44;;;;;;;1.60;1.20;;;;;;;19.54;73.21;100524.81;5040254;28;20044;-68
2022/08/22 01:59:23;;;;;;;1.80;1.13;;;;;;;19.79;72.47;100530.53;5041875;28;20725;-67
2022/08/22 02:01:48;;;;;;;2.05;0.80;;;;;;;19.82;71.98;100527.66;5007713;28;20038;-68
2022/08/22 02:08:08;;;;;;;;;;;;;;;20.14;70.31;100524.91;4997859;28;20318;-68
2022/08/22 02:10:42;;;;;;;1.23;0.80;;;;;;;20.07;70.71;100531.59;4997913;28;20399;-68
2022/08/22 02:13:11;;;;;;;2.17;0.93;;;;;;;20.21;70.32;100536.97;5010250;28;20479;-68
2022/08/22 02:20:02;;;;;;;3.08;0.93;;;;;;;20.58;69.29;100545.44;4959446;28;20134;-68
2022/08/22 02:33:30;;;;;;;3.03;1.02;;;;;;;20.09;71.00;100537.69;5033779;28;20095;-68
2022/08/22 02:36:20;;;;;;;2.30;1.00;;;;;;;20.04;71.08;100548.63;5056240;28;20045;-68
2022/08/22 02:44:05;;;;;;;7.25;1.65;;;;;;;19.97;71.28;100546.41;4990385;28;20417;-68
2022/08/22 02:46:26;;;;;;;3.85;1.10;;;;;;;19.88;71.65;100537.97;4983607;28;20393;-68
2022/08/22 02:49:53;;;;;;;3.38;1.00;;;;;;;19.89;71.69;100539.69;5007453;28;20058;-68
2022/08/22 02:52:08;;;;;;;2.38;1.10;;;;;;;19.86;71.73;100539.00;5036782;28;20094;-68
2022/08/22 02:54:50;;;;;;;4.78;1.30;;;;;;;19.87;71.95;100536.28;5056239;28;20041;-68
2022/08/22 02:57:41;;;;;;;2.53;1.10;;;;;;;19.94;71.55;100545.63;5054976;28;20498;-68
2022/08/22 03:00:28;;;;;;;2.35;1.10;;;;;;;19.99;71.47;100541.81;5049972;28;20298;-67
2022/08/22 03:03:45;;;;;;;4.88;1.35;;;;;;;19.85;71.82;100539.97;5028948;28;20041;-68
2022/08/22 03:06:42;;;;;;;4.60;1.33;;;;;;;19.66;72.98;100537.47;4991029;28;20058;-68
2022/08/22 03:09:13;;;;;;;5.00;1.40;;;;;;;19.59;72.84;100536.06;4972910;28;20492;-68
2022/08/22 03:11:45;;;;;;;3.58;1.40;;;;;;;19.41;73.52;100541.50;5014169;28;20488;-68
2022/08/22 03:14:17;;;;;;;3.38;1.60;;;;;;;19.32;74.15;100533.19;5034989;28;20064;-69
2022/08/22 03:23:54;;;;;;;5.40;1.63;;;;;;;19.23;75.25;100536.31;5019947;28;20136;-68
2022/08/22 03:29:39;;;;;;;2.65;1.20;;;;;;;19.24;75.08;100541.59;4969865;28;19957;-68
2022/08/22 03:32:41;;;;;;;2.60;1.60;;;;;;;19.29;74.78;100541.34;5010830;28;20092;-67
2022/08/22 03:35:25;;;;;;;2.65;1.35;;;;;;;19.34;75.21;100539.25;5031819;28;20099;-68
2022/08/22 03:38:07;;;;;;;3.90;1.30;;;;;;;19.37;74.76;100537.28;5035061;28;20083;-66
2022/08/22 03:41:28;;;;;;;4.38;1.60;;;;;;;19.47;74.60;100539.44;5034271;28;20049;-68
2022/08/22 03:44:12;;;;;;;3.08;1.80;;;;;;;19.45;74.81;100536.88;5053070;28;20045;-66
2022/08/22 03:46:46;;;;;;;4.05;1.73;;;;;;;19.50;74.46;100539.25;5069709;28;20111;-69
2022/08/22 03:49:42;;;;;;;3.35;1.38;;;;;;;19.54;74.58;100535.47;5069903;28;20047;-69
2022/08/22 03:52:32;;;;;;;4.72;1.60;;;;;;;19.57;74.26;100537.97;5074475;28;20052;-67
2022/08/22 03:55:06;;;;;;;2.47;1.50;;;;;;;19.57;74.21;100538.84;5060680;28;20044;-68
2022/08/22 03:57:46;;;;;;;2.13;1.60;;;;;;;19.60;74.50;100538.66;5076643;28;20047;-67
2022/08/22 04:00:53;;;;;;;3.15;1.50;;;;;;;19.74;74.10;100547.72;5070872;28;20163;-67
2022/08/22 04:07:10;;;;;;;4.25;1.60;;;;;;;19.82;73.90;100546.31;5051522;28;20094;-68
2022/08/22 04:10:12;;;;;;;4.97;1.52;;;;;;;19.83;74.04;100542.72;5063730;28;20067;-67
2022/08/22 04:13:37;;;;;;;3.22;1.58;;;;;;;19.73;74.21;100546.84;5073520;28;20048;-69
2022/08/22 04:20:10;;;;;;;3.97;1.77;;;;;;;19.56;74.99;100545.13;5012566;28;20050;-67
2022/08/22 04:26:12;;;;;;;3.53;1.63;;;;;;;19.58;75.04;100548.53;5008308;28;20068;-69
2022/08/22 04:32:45;;;;;;;2.72;1.85;;;;;;;19.85;74.43;100551.50;5019324;28;20051;-69
2022/08/22 04:35:24;;;;;;;3.63;2.08;;;;;;;20.04;73.82;100553.09;5011686;28;20072;-69
2022/08/22 04:38:27;;;;;;;2.67;2.00;;;;;;;20.20;72.86;100551.25;5074581;28;20036;-69
2022/08/22 04:44:09;;;;;;;3.30;2.25;;;;;;;20.57;71.88;100560.63;5068784;28;20048;-68
2022/08/22 04:46:51;;;;;;;3.33;1.70;;;;;;;20.65;71.65;100558.34;5081955;28;20059;-68
2022/08/22 04:50:06;;;;;;;2.67;1.90;;;;;;;20.76;71.51;100560.38;5072911;28;20111;-68
2022/08/22 04:53:58;;;;;;;3.58;1.50;;;;;;;20.86;70.72;100564.16;4992479;28;20085;-69
2022/08/22 04:56:50;;;;;;;4.03;2.10;;;;;;;20.87;70.88;100567.72;4989805;28;20105;-68
2022/08/22 04:59:17;;;;;;;3.63;1.30;;;;;;;20.89;70.68;100566.66;5055900;28;20070;-68
2022/08/22 05:02:07;;;;;;;2.20;1.55;;;;;;;20.89;70.79;100574.66;5080821;28;20041;-68
2022/08/22 05:04:46;;;;;;;2.88;1.88;;;;;;;21.00;70.77;100578.50;5072925;28;20500;-68
2022/08/22 05:07:42;;;;;;;3.13;1.80;;;;;;;20.99;70.42;100577.66;5074000;28;20029;-67
2022/08/22 05:10:24;;;;;;;4.25;1.50;;;;;;;21.04;70.58;100582.69;5070636;28;20048;-69
2022/08/22 05:12:56;;;;;;;3.55;1.90;;;;;;;21.13;70.49;100579.44;5084420;28;20455;-69
2022/08/22 05:15:45;;;;;;;7.22;2.00;;;;;;;21.17;69.84;100587.16;5088502;28;20032;-69
2022/08/22 05:18:34;;;;;;;2.50;1.42;;;;;;;21.30;69.46;100586.41;5058066;28;20032;-69
2022/08/22 05:21:02;;;;;;;4.03;1.60;;;;;;;21.32;69.58;100588.06;5068944;28;20054;-68
2022/08/22 05:24:00;;;;;;;3.42;2.05;;;;;;;21.24;69.37;100587.66;5070017;28;20051;-69
2022/08/22 05:26:46;;;;;;;4.10;2.08;;;;;;;21.29;69.56;100596.25;5072053;28;20047;-67
2022/08/22 05:29:36;;;;;;;4.22;1.50;;;;;;;21.31;69.53;100599.69;5073879;28;20060;-67
2022/08/22 05:32:10;;;;;;;3.03;1.80;;;;;;;21.37;69.23;100596.66;5067017;28;20044;-69
2022/08/22 05:34:38;;;;;;;4.18;2.10;;;;;;;21.35;69.10;100598.56;5074966;28;20039;-68
2022/08/22 05:40:20;;;;;;;2.38;1.85;;;;;;;21.43;69.33;100597.22;5054741;28;20123;-69
2022/08/22 05:42:46;;;;;;;3.03;2.05;;;;;;;21.52;68.99;100591.28;5075200;28;20094;-68
2022/08/22 05:45:13;;;;;;;3.35;2.05;;;;;;;21.73;68.42;100600.59;5073531;28;20845;-68
2022/08/22 05:47:44;;;;;;;4.30;2.00;;;;;;;21.73;68.18;100600.59;5074351;28;20032;-69
2022/08/22 05:50:17;;;;;;;3.83;1.70;;;;;;;21.82;67.83;100602.69;5079812;28;20025;-68
2022/08/22 05:53:07;;;;;;;;;;;;;;;21.98;67.85;100599.00;5077845;28;20031;-68
2022/08/22 05:56:19;;;;;;;6.03;1.60;;;;;;;21.62;67.82;100605.78;5093490;28;19962;-68
2022/08/22 05:58:48;;;;;;;6.05;1.77;;;;;;;21.72;68.33;100606.06;5023181;28;20083;-68
2022/08/22 06:01:31;;;;;;;3.40;1.67;;;;;;;21.58;68.53;100612.28;5064823;28;20434;-68
2022/08/22 06:05:07;;;;;;;4.05;1.85;;;;;;;21.69;68.75;100599.06;5054911;28;20029;-67
2022/08/22 06:07:40;;;;;;;2.78;1.50;;;;;;;21.79;68.53;100605.56;5043193;28;20051;-67
2022/08/22 06:10:35;;;;;;;4.05;1.63;;;;;;;21.53;69.41;100601.88;5073858;28;20111;-67
2022/08/22 06:13:30;;;;;;;3.67;1.60;;;;;;;21.74;69.31;100606.81;5075319;28;20060;-67
2022/08/22 06:16:16;;;;;;;3.63;1.52;;;;;;;21.95;68.69;100610.78;5075325;28;20033;-68
2022/08/22 06:18:43;;;;;;;4.57;1.60;;;;;;;21.97;68.41;100602.63;5072428;28;20086;-68
2022/08/22 06:21:19;;;;;;;3.80;1.70;;;;;;;22.07;68.40;100611.78;5071997;28;20039;-68
2022/08/22 06:23:55;;;;;;;5.90;1.65;;;;;;;21.78;69.00;100617.22;5066250;28;20112;-67
2022/08/22 06:26:24;;;;;;;3.88;2.13;;;;;;;22.15;67.90;100617.53;5069732;28;20037;-69
2022/08/22 06:28:55;;;;;;;3.75;1.77;;;;;;;22.05;68.43;100611.00;5072807;28;20103;-69
2022/08/22 06:31:34;;;;;;;5.63;2.13;;;;;;;22.13;68.56;100608.72;5078643;28;20127;-69
2022/08/22 06:34:22;;;;;;;4.35;1.90;;;;;;;22.26;68.18;100611.44;5088845;28;20064;-68
2022/08/22 06:36:50;;;;;;;4.40;1.67;;;;;;;22.56;67.29;100608.53;5070934;28;20032;-69
2022/08/22 06:40:08;;;;;;;3.33;1.67;;;;;;;22.68;67.10;100615.72;5075780;28;20032;-65
2022/08/22 06:42:39;;;;;;;4.75;1.90;;;;;;;22.68;67.01;100614.88;5074318;28;20044;-66
2022/08/22 06:45:15;;;;;;;3.80;1.83;;;;;;;22.83;66.74;100620.03;5073894;28;20040;-67
2022/08/22 06:48:41;;;;;;;3.33;1.77;;;;;;;22.90;66.52;100622.28;5076506;28;20521;-69
2022/08/22 06:51:08;;;;;;;3.78;1.73;;;;;;;22.98;66.45;100619.94;5067149;28;20194;-71
2022/08/22 06:53:53;;;;;;;3.63;1.90;;;;;;;22.92;66.70;100629.28;5032559;28;20140;-70
2022/08/22 06:57:15;;;;;;;5.15;1.70;;;;;;;22.85;67.12;100628.81;5079600;28;20031;-70
